sensor_id;sensor_type;location;lat;lon;timestamp;temperature;humidity
14893;DHT22;7538;53.626;9.906;2022-10-31T00:01:59;13.00;99.90
14893;DHT22;7538;53.626;9.906;2022-10-31T00:04:26;12.90;99.90
14893;DHT22;7538;53.626;9.906;2022-10-31T00:06:53;13.00;99.90
14893;DHT22;7538;53.626;9.906;2022-10-31T00:09:21;13.00;99.90
14893;DHT22;7538;53.626;9.906;2022-10-31T00:11:48;13.00;99.90
14893;DHT22;7538;53.626;9.906;2022-10-31T00:14:15;13.00;99.90
14893;DHT22;7538;53.626;9.906;2022-10-31T00:16:41;13.00;99.90
14893;DHT22;7538;53.626;9.906;2022-10-31T00:19:08;13.00;99.90
14893;DHT22;7538;53.626;9.906;2022-10-31T00:21:35;13.00;99.90
14893;DHT22;7538;53.626;9.906;2022-10-31T00:24:02;13.00;99.90
14893;DHT22;7538;53.626;9.906;2022-10-31T00:26:31;13.00;99.90
14893;DHT22;7538;53.626;9.906;2022-10-31T00:28:59;13.00;99.90
14893;DHT22;7538;53.626;9.906;2022-10-31T00:31:26;13.10;99.90
14893;DHT22;7538;53.626;9.906;2022-10-31T00:33:53;13.10;99.90
14893;DHT22;7538;53.626;9.906;2022-10-31T00:36:19;13.10;99.90
14893;DHT22;7538;53.626;9.906;2022-10-31T00:38:47;13.10;99.90
14893;DHT22;7538;53.626;9.906;2022-10-31T00:41:15;13.10;99.90
14893;DHT22;7538;53.626;9.906;2022-10-31T00:43:44;13.10;99.90
14893;DHT22;7538;53.626;9.906;2022-10-31T00:46:11;13.10;99.90
14893;DHT22;7538;53.626;9.906;2022-10-31T00:48:38;13.20;99.90
14893;DHT22;7538;53.626;9.906;2022-10-31T00:51:06;13.20;99.90
14893;DHT22;7538;53.626;9.906;2022-10-31T00:53:33;13.20;99.90
14893;DHT22;7538;53.626;9.906;2022-10-31T00:55:59;13.20;99.90
14893;DHT22;7538;53.626;9.906;2022-10-31T00:58:26;13.20;99.90
14893;DHT22;7538;53.626;9.906;2022-10-31T01:00:54;13.20;99.90
14893;DHT22;7538;53.626;9.906;2022-10-31T01:03:22;13.20;99.90
14893;DHT22;7538;53.626;9.906;2022-10-31T01:05:59;13.20;99.90
14893;DHT22;7538;53.626;9.906;2022-10-31T01:08:25;13.20;99.90
14893;DHT22;7538;53.626;9.906;2022-10-31T01:11:00;13.20;99.90
14893;DHT22;7538;53.626;9.906;2022-10-31T01:13:27;13.20;99.90
14893;DHT22;7538;53.626;9.906;2022-10-31T01:15:56;13.20;99.90
14893;DHT22;7538;53.626;9.906;2022-10-31T01:18:24;13.20;99.90
14893;DHT22;7538;53.626;9.906;2022-10-31T01:20:58;13.20;99.90
14893;DHT22;7538;53.626;9.906;2022-10-31T01:23:25;13.20;99.90
14893;DHT22;7538;53.626;9.906;2022-10-31T01:26:03;13.20;99.90
14893;DHT22;7538;53.626;9.906;2022-10-31T01:28:30;13.20;99.90
14893;DHT22;7538;53.626;9.906;2022-10-31T01:31:02;13.20;99.90
14893;DHT22;7538;53.626;9.906;2022-10-31T01:33:29;13.20;99.90
14893;DHT22;7538;53.626;9.906;2022-10-31T01:35:56;13.30;99.90
14893;DHT22;7538;53.626;9.906;2022-10-31T01:38:23;13.30;99.90
14893;DHT22;7538;53.626;9.906;2022-10-31T01:40:50;13.30;99.90
14893;DHT22;7538;53.626;9.906;2022-10-31T01:43:17;13.30;99.90
14893;DHT22;7538;53.626;9.906;2022-10-31T01:45:49;13.30;99.90
14893;DHT22;7538;53.626;9.906;2022-10-31T01:48:21;13.40;99.90
14893;DHT22;7538;53.626;9.906;2022-10-31T01:50:50;13.40;99.90
14893;DHT22;7538;53.626;9.906;2022-10-31T01:53:18;13.40;99.90
14893;DHT22;7538;53.626;9.906;2022-10-31T01:55:46;13.40;99.90
14893;DHT22;7538;53.626;9.906;2022-10-31T01:58:18;13.40;99.90
14893;DHT22;7538;53.626;9.906;2022-10-31T02:00:48;13.40;99.90
14893;DHT22;7538;53.626;9.906;2022-10-31T02:03:18;13.40;99.90
14893;DHT22;7538;53.626;9.906;2022-10-31T02:05:47;13.30;99.90
14893;DHT22;7538;53.626;9.906;2022-10-31T02:08:16;13.40;99.90
14893;DHT22;7538;53.626;9.906;2022-10-31T02:10:45;13.40;99.90
14893;DHT22;7538;53.626;9.906;2022-10-31T02:13:12;13.40;99.90
14893;DHT22;7538;53.626;9.906;2022-10-31T02:15:40;13.40;99.90
14893;DHT22;7538;53.626;9.906;2022-10-31T02:18:07;13.40;99.90
14893;DHT22;7538;53.626;9.906;2022-10-31T02:20:42;13.50;99.90
14893;DHT22;7538;53.626;9.906;2022-10-31T02:26:37;13.50;99.90
14893;DHT22;7538;53.626;9.906;2022-10-31T02:29:25;13.50;99.90
14893;DHT22;7538;53.626;9.906;2022-10-31T02:32:01;13.60;99.90
14893;DHT22;7538;53.626;9.906;2022-10-31T02:34:36;13.60;99.90
14893;DHT22;7538;53.626;9.906;2022-10-31T02:37:09;13.60;99.90
14893;DHT22;7538;53.626;9.906;2022-10-31T02:39:44;13.60;99.90
14893;DHT22;7538;53.626;9.906;2022-10-31T02:42:16;13.60;99.90
14893;DHT22;7538;53.626;9.906;2022-10-31T02:44:50;13.60;99.90
14893;DHT22;7538;53.626;9.906;2022-10-31T02:47:23;13.60;99.90
14893;DHT22;7538;53.626;9.906;2022-10-31T02:49:56;13.60;99.90
14893;DHT22;7538;53.626;9.906;2022-10-31T02:52:26;13.60;99.90
14893;DHT22;7538;53.626;9.906;2022-10-31T02:54:53;13.60;99.90
14893;DHT22;7538;53.626;9.906;2022-10-31T02:57:23;13.60;99.90
14893;DHT22;7538;53.626;9.906;2022-10-31T02:59:54;13.60;99.90
14893;DHT22;7538;53.626;9.906;2022-10-31T03:02:52;13.60;99.90
14893;DHT22;7538;53.626;9.906;2022-10-31T03:05:41;13.60;99.90
14893;DHT22;7538;53.626;9.906;2022-10-31T03:08:17;13.60;99.90
14893;DHT22;7538;53.626;9.906;2022-10-31T03:10:52;13.60;99.90
14893;DHT22;7538;53.626;9.906;2022-10-31T03:13:24;13.60;99.90
14893;DHT22;7538;53.626;9.906;2022-10-31T03:16:00;13.60;99.90
14893;DHT22;7538;53.626;9.906;2022-10-31T03:18:34;13.60;99.90
14893;DHT22;7538;53.626;9.906;2022-10-31T03:21:06;13.60;99.90
14893;DHT22;7538;53.626;9.906;2022-10-31T03:23:36;13.50;99.90
14893;DHT22;7538;53.626;9.906;2022-10-31T03:26:06;13.50;99.90
14893;DHT22;7538;53.626;9.906;2022-10-31T03:28:37;13.50;99.90
14893;DHT22;7538;53.626;9.906;2022-10-31T03:31:05;13.50;99.90
14893;DHT22;7538;53.626;9.906;2022-10-31T03:33:36;13.50;99.90
14893;DHT22;7538;53.626;9.906;2022-10-31T03:36:05;13.50;99.90
14893;DHT22;7538;53.626;9.906;2022-10-31T03:38:35;13.50;99.90
14893;DHT22;7538;53.626;9.906;2022-10-31T03:41:05;13.60;99.90
14893;DHT22;7538;53.626;9.906;2022-10-31T03:43:36;13.50;99.90
14893;DHT22;7538;53.626;9.906;2022-10-31T03:46:04;13.50;99.90
14893;DHT22;7538;53.626;9.906;2022-10-31T03:48:32;13.50;99.90
14893;DHT22;7538;53.626;9.906;2022-10-31T03:51:06;13.50;99.90
14893;DHT22;7538;53.626;9.906;2022-10-31T03:53:38;13.50;99.90
14893;DHT22;7538;53.626;9.906;2022-10-31T03:56:11;13.50;99.90
14893;DHT22;7538;53.626;9.906;2022-10-31T03:58:44;13.50;99.90
14893;DHT22;7538;53.626;9.906;2022-10-31T04:01:15;13.50;99.90
14893;DHT22;7538;53.626;9.906;2022-10-31T04:03:44;13.50;99.90
14893;DHT22;7538;53.626;9.906;2022-10-31T04:06:14;13.60;99.90
14893;DHT22;7538;53.626;9.906;2022-10-31T04:08:47;13.60;99.90
14893;DHT22;7538;53.626;9.906;2022-10-31T04:11:17;13.50;99.90
14893;DHT22;7538;53.626;9.906;2022-10-31T04:13:46;13.50;99.90
14893;DHT22;7538;53.626;9.906;2022-10-31T04:16:14;13.50;99.90
14893;DHT22;7538;53.626;9.906;2022-10-31T04:18:42;13.50;99.90
14893;DHT22;7538;53.626;9.906;2022-10-31T04:21:08;13.50;99.90
14893;DHT22;7538;53.626;9.906;2022-10-31T04:23:37;13.50;99.90
14893;DHT22;7538;53.626;9.906;2022-10-31T04:26:04;13.60;99.90
14893;DHT22;7538;53.626;9.906;2022-10-31T04:28:31;13.60;99.90
14893;DHT22;7538;53.626;9.906;2022-10-31T04:30:59;13.60;99.90
14893;DHT22;7538;53.626;9.906;2022-10-31T04:33:26;13.60;99.90
14893;DHT22;7538;53.626;9.906;2022-10-31T04:35:52;13.60;99.90
14893;DHT22;7538;53.626;9.906;2022-10-31T04:38:19;13.60;99.90
14893;DHT22;7538;53.626;9.906;2022-10-31T04:40:47;13.70;99.90
14893;DHT22;7538;53.626;9.906;2022-10-31T04:43:14;13.80;99.90
14893;DHT22;7538;53.626;9.906;2022-10-31T04:45:41;13.80;99.90
14893;DHT22;7538;53.626;9.906;2022-10-31T04:48:07;13.90;99.90
14893;DHT22;7538;53.626;9.906;2022-10-31T04:50:34;13.90;99.90
14893;DHT22;7538;53.626;9.906;2022-10-31T04:53:01;13.90;99.90
14893;DHT22;7538;53.626;9.906;2022-10-31T04:55:28;14.00;99.90
14893;DHT22;7538;53.626;9.906;2022-10-31T04:57:56;14.00;99.90
14893;DHT22;7538;53.626;9.906;2022-10-31T05:00:23;14.00;99.90
14893;DHT22;7538;53.626;9.906;2022-10-31T05:02:51;14.00;99.90
14893;DHT22;7538;53.626;9.906;2022-10-31T05:05:20;14.10;99.90
14893;DHT22;7538;53.626;9.906;2022-10-31T05:07:48;14.10;99.90
14893;DHT22;7538;53.626;9.906;2022-10-31T05:10:16;14.10;99.90
14893;DHT22;7538;53.626;9.906;2022-10-31T05:12:47;14.10;99.90
14893;DHT22;7538;53.626;9.906;2022-10-31T05:15:16;14.10;99.90
14893;DHT22;7538;53.626;9.906;2022-10-31T05:17:43;14.10;99.90
14893;DHT22;7538;53.626;9.906;2022-10-31T05:20:11;14.10;99.90
14893;DHT22;7538;53.626;9.906;2022-10-31T05:22:42;14.10;99.90
14893;DHT22;7538;53.626;9.906;2022-10-31T05:25:09;14.20;99.90
14893;DHT22;7538;53.626;9.906;2022-10-31T05:27:38;14.20;99.90
14893;DHT22;7538;53.626;9.906;2022-10-31T05:30:06;14.40;99.90
14893;DHT22;7538;53.626;9.906;2022-10-31T05:32:38;14.30;99.90
14893;DHT22;7538;53.626;9.906;2022-10-31T05:35:06;14.30;99.90
14893;DHT22;7538;53.626;9.906;2022-10-31T05:37:33;14.30;99.90
14893;DHT22;7538;53.626;9.906;2022-10-31T05:40:00;14.30;99.90
14893;DHT22;7538;53.626;9.906;2022-10-31T05:42:27;14.40;99.90
14893;DHT22;7538;53.626;9.906;2022-10-31T05:44:54;14.40;99.90
14893;DHT22;7538;53.626;9.906;2022-10-31T05:47:20;14.50;99.90
14893;DHT22;7538;53.626;9.906;2022-10-31T05:49:49;14.50;99.90
14893;DHT22;7538;53.626;9.906;2022-10-31T05:52:15;14.40;99.90
14893;DHT22;7538;53.626;9.906;2022-10-31T05:54:42;14.40;99.90
14893;DHT22;7538;53.626;9.906;2022-10-31T05:57:09;14.40;99.90
14893;DHT22;7538;53.626;9.906;2022-10-31T05:59:36;14.50;99.90
14893;DHT22;7538;53.626;9.906;2022-10-31T06:02:03;14.50;99.90
14893;DHT22;7538;53.626;9.906;2022-10-31T06:04:30;14.50;99.90
14893;DHT22;7538;53.626;9.906;2022-10-31T06:06:58;14.50;99.90
14893;DHT22;7538;53.626;9.906;2022-10-31T06:09:24;14.50;99.90
14893;DHT22;7538;53.626;9.906;2022-10-31T06:11:51;14.50;99.90
14893;DHT22;7538;53.626;9.906;2022-10-31T06:14:18;14.50;99.90
14893;DHT22;7538;53.626;9.906;2022-10-31T06:16:45;14.50;99.90
14893;DHT22;7538;53.626;9.906;2022-10-31T06:19:12;15.70;99.90
14893;DHT22;7538;53.626;9.906;2022-10-31T06:21:38;14.50;99.90
14893;DHT22;7538;53.626;9.906;2022-10-31T06:24:07;14.50;99.90
14893;DHT22;7538;53.626;9.906;2022-10-31T06:26:34;14.50;99.90
14893;DHT22;7538;53.626;9.906;2022-10-31T06:29:00;14.50;99.90
14893;DHT22;7538;53.626;9.906;2022-10-31T06:31:27;14.50;99.90
14893;DHT22;7538;53.626;9.906;2022-10-31T06:33:54;14.50;99.90
14893;DHT22;7538;53.626;9.906;2022-10-31T06:36:21;14.60;99.90
14893;DHT22;7538;53.626;9.906;2022-10-31T06:38:47;14.60;99.90
14893;DHT22;7538;53.626;9.906;2022-10-31T06:41:16;14.60;99.90
14893;DHT22;7538;53.626;9.906;2022-10-31T06:43:45;14.60;99.90
14893;DHT22;7538;53.626;9.906;2022-10-31T06:46:12;14.60;99.90
14893;DHT22;7538;53.626;9.906;2022-10-31T06:48:40;14.70;99.90
14893;DHT22;7538;53.626;9.906;2022-10-31T06:51:07;14.70;99.90
14893;DHT22;7538;53.626;9.906;2022-10-31T06:53:34;14.70;99.90
14893;DHT22;7538;53.626;9.906;2022-10-31T06:56:00;14.70;99.90
14893;DHT22;7538;53.626;9.906;2022-10-31T06:58:28;14.70;99.90
14893;DHT22;7538;53.626;9.906;2022-10-31T07:00:58;14.70;99.90
14893;DHT22;7538;53.626;9.906;2022-10-31T07:03:25;14.70;99.90
14893;DHT22;7538;53.626;9.906;2022-10-31T07:05:54;14.90;99.90
14893;DHT22;7538;53.626;9.906;2022-10-31T07:08:21;14.70;99.90
14893;DHT22;7538;53.626;9.906;2022-10-31T07:10:52;14.60;99.90
14893;DHT22;7538;53.626;9.906;2022-10-31T07:13:19;14.60;99.90
14893;DHT22;7538;53.626;9.906;2022-10-31T07:15:52;14.50;99.90
14893;DHT22;7538;53.626;9.906;2022-10-31T07:18:20;14.60;99.90
14893;DHT22;7538;53.626;9.906;2022-10-31T07:20:47;14.50;99.90
14893;DHT22;7538;53.626;9.906;2022-10-31T07:23:14;14.60;99.90
14893;DHT22;7538;53.626;9.906;2022-10-31T07:25:41;14.60;99.90
14893;DHT22;7538;53.626;9.906;2022-10-31T07:28:08;14.60;99.90
14893;DHT22;7538;53.626;9.906;2022-10-31T07:30:35;14.60;99.90
14893;DHT22;7538;53.626;9.906;2022-10-31T07:33:04;14.70;99.90
14893;DHT22;7538;53.626;9.906;2022-10-31T07:35:31;14.70;99.90
14893;DHT22;7538;53.626;9.906;2022-10-31T07:38:06;14.70;99.90
14893;DHT22;7538;53.626;9.906;2022-10-31T07:40:33;14.70;99.90
14893;DHT22;7538;53.626;9.906;2022-10-31T07:43:00;14.60;99.90
14893;DHT22;7538;53.626;9.906;2022-10-31T07:45:27;14.60;99.90
14893;DHT22;7538;53.626;9.906;2022-10-31T07:47:54;14.50;99.90
14893;DHT22;7538;53.626;9.906;2022-10-31T07:50:24;14.50;99.90
14893;DHT22;7538;53.626;9.906;2022-10-31T07:52:58;14.50;99.90
14893;DHT22;7538;53.626;9.906;2022-10-31T07:55:25;14.50;99.90
14893;DHT22;7538;53.626;9.906;2022-10-31T07:57:56;14.60;99.90
14893;DHT22;7538;53.626;9.906;2022-10-31T08:00:22;14.70;99.90
14893;DHT22;7538;53.626;9.906;2022-10-31T08:02:56;14.70;99.90
14893;DHT22;7538;53.626;9.906;2022-10-31T08:05:24;14.70;99.90
14893;DHT22;7538;53.626;9.906;2022-10-31T08:07:51;14.70;99.90
14893;DHT22;7538;53.626;9.906;2022-10-31T08:10:18;14.70;99.90
14893;DHT22;7538;53.626;9.906;2022-10-31T08:12:45;14.70;99.90
14893;DHT22;7538;53.626;9.906;2022-10-31T08:15:12;14.80;99.90
14893;DHT22;7538;53.626;9.906;2022-10-31T08:17:39;14.80;99.90
14893;DHT22;7538;53.626;9.906;2022-10-31T08:20:06;14.90;99.90
14893;DHT22;7538;53.626;9.906;2022-10-31T08:22:34;15.00;99.90
14893;DHT22;7538;53.626;9.906;2022-10-31T08:25:01;15.00;99.90
14893;DHT22;7538;53.626;9.906;2022-10-31T08:27:28;15.00;99.90
14893;DHT22;7538;53.626;9.906;2022-10-31T08:29:55;15.00;99.90
14893;DHT22;7538;53.626;9.906;2022-10-31T08:32:22;15.10;99.90
14893;DHT22;7538;53.626;9.906;2022-10-31T08:34:49;15.00;99.90
14893;DHT22;7538;53.626;9.906;2022-10-31T08:37:16;13.40;99.90
14893;DHT22;7538;53.626;9.906;2022-10-31T08:39:46;15.00;99.90
14893;DHT22;7538;53.626;9.906;2022-10-31T08:42:13;15.00;99.90
14893;DHT22;7538;53.626;9.906;2022-10-31T08:44:40;15.00;99.90
14893;DHT22;7538;53.626;9.906;2022-10-31T08:47:07;15.00;99.90
14893;DHT22;7538;53.626;9.906;2022-10-31T08:49:34;15.00;99.90
14893;DHT22;7538;53.626;9.906;2022-10-31T08:52:01;14.90;99.90
14893;DHT22;7538;53.626;9.906;2022-10-31T08:54:27;15.30;99.90
14893;DHT22;7538;53.626;9.906;2022-10-31T08:56:56;15.00;99.90
14893;DHT22;7538;53.626;9.906;2022-10-31T08:59:23;15.00;99.90
14893;DHT22;7538;53.626;9.906;2022-10-31T09:01:50;14.90;99.90
14893;DHT22;7538;53.626;9.906;2022-10-31T09:04:17;14.90;99.90
14893;DHT22;7538;53.626;9.906;2022-10-31T09:06:43;15.00;99.90
14893;DHT22;7538;53.626;9.906;2022-10-31T09:09:10;15.00;99.90
14893;DHT22;7538;53.626;9.906;2022-10-31T09:11:37;15.00;99.90
14893;DHT22;7538;53.626;9.906;2022-10-31T09:14:05;15.10;99.90
14893;DHT22;7538;53.626;9.906;2022-10-31T09:16:32;15.20;99.90
14893;DHT22;7538;53.626;9.906;2022-10-31T09:18:59;15.30;99.90
14893;DHT22;7538;53.626;9.906;2022-10-31T09:21:26;15.40;99.90
14893;DHT22;7538;53.626;9.906;2022-10-31T09:23:53;15.40;99.90
14893;DHT22;7538;53.626;9.906;2022-10-31T09:26:19;15.50;99.90
14893;DHT22;7538;53.626;9.906;2022-10-31T09:28:47;15.50;99.90
14893;DHT22;7538;53.626;9.906;2022-10-31T09:31:15;15.60;99.90
14893;DHT22;7538;53.626;9.906;2022-10-31T09:33:42;15.60;99.90
14893;DHT22;7538;53.626;9.906;2022-10-31T09:36:08;15.60;99.90
14893;DHT22;7538;53.626;9.906;2022-10-31T09:38:35;15.60;99.90
14893;DHT22;7538;53.626;9.906;2022-10-31T09:41:12;15.70;99.90
14893;DHT22;7538;53.626;9.906;2022-10-31T09:43:48;15.70;99.90
14893;DHT22;7538;53.626;9.906;2022-10-31T09:46:26;15.80;99.90
14893;DHT22;7538;53.626;9.906;2022-10-31T09:49:12;15.80;99.90
14893;DHT22;7538;53.626;9.906;2022-10-31T09:51:45;15.80;99.90
14893;DHT22;7538;53.626;9.906;2022-10-31T09:54:17;15.90;99.90
14893;DHT22;7538;53.626;9.906;2022-10-31T09:56:45;15.90;99.90
14893;DHT22;7538;53.626;9.906;2022-10-31T09:59:17;16.00;99.90
14893;DHT22;7538;53.626;9.906;2022-10-31T10:01:51;16.00;99.90
14893;DHT22;7538;53.626;9.906;2022-10-31T10:04:30;16.10;99.90
14893;DHT22;7538;53.626;9.906;2022-10-31T10:06:59;16.10;99.90
14893;DHT22;7538;53.626;9.906;2022-10-31T10:09:27;16.10;99.90
14893;DHT22;7538;53.626;9.906;2022-10-31T10:12:03;16.20;99.90
14893;DHT22;7538;53.626;9.906;2022-10-31T10:14:45;16.20;99.90
14893;DHT22;7538;53.626;9.906;2022-10-31T10:17:29;16.20;99.90
14893;DHT22;7538;53.626;9.906;2022-10-31T10:20:11;16.20;99.90
14893;DHT22;7538;53.626;9.906;2022-10-31T10:22:44;14.80;99.90
14893;DHT22;7538;53.626;9.906;2022-10-31T10:25:16;16.20;99.90
14893;DHT22;7538;53.626;9.906;2022-10-31T10:28:06;16.30;99.90
14893;DHT22;7538;53.626;9.906;2022-10-31T10:30:39;16.30;99.90
14893;DHT22;7538;53.626;9.906;2022-10-31T10:33:12;16.30;99.90
14893;DHT22;7538;53.626;9.906;2022-10-31T10:35:42;16.30;99.90
14893;DHT22;7538;53.626;9.906;2022-10-31T10:38:17;16.30;99.90
14893;DHT22;7538;53.626;9.906;2022-10-31T10:40:45;16.30;99.90
14893;DHT22;7538;53.626;9.906;2022-10-31T10:43:22;16.30;99.90
14893;DHT22;7538;53.626;9.906;2022-10-31T10:45:58;16.30;99.90
14893;DHT22;7538;53.626;9.906;2022-10-31T10:48:51;16.30;99.90
14893;DHT22;7538;53.626;9.906;2022-10-31T10:51:26;16.40;99.90
14893;DHT22;7538;53.626;9.906;2022-10-31T10:54:03;16.40;99.90
14893;DHT22;7538;53.626;9.906;2022-10-31T10:56:50;16.50;99.90
14893;DHT22;7538;53.626;9.906;2022-10-31T10:59:20;16.50;99.90
14893;DHT22;7538;53.626;9.906;2022-10-31T11:01:49;16.50;99.90
14893;DHT22;7538;53.626;9.906;2022-10-31T11:04:26;16.50;99.90
14893;DHT22;7538;53.626;9.906;2022-10-31T11:07:03;16.60;99.90
14893;DHT22;7538;53.626;9.906;2022-10-31T11:09:30;16.60;99.90
14893;DHT22;7538;53.626;9.906;2022-10-31T11:11:58;16.70;99.90
14893;DHT22;7538;53.626;9.906;2022-10-31T11:14:26;16.60;99.90
14893;DHT22;7538;53.626;9.906;2022-10-31T11:16:55;16.60;99.90
14893;DHT22;7538;53.626;9.906;2022-10-31T11:19:34;16.60;99.90
14893;DHT22;7538;53.626;9.906;2022-10-31T11:22:06;16.50;99.90
14893;DHT22;7538;53.626;9.906;2022-10-31T11:24:38;16.50;99.90
14893;DHT22;7538;53.626;9.906;2022-10-31T11:27:13;16.50;99.90
14893;DHT22;7538;53.626;9.906;2022-10-31T11:29:40;16.50;99.90
14893;DHT22;7538;53.626;9.906;2022-10-31T11:32:17;16.50;99.90
14893;DHT22;7538;53.626;9.906;2022-10-31T11:34:47;16.50;99.90
14893;DHT22;7538;53.626;9.906;2022-10-31T11:37:18;16.40;99.90
14893;DHT22;7538;53.626;9.906;2022-10-31T11:39:47;16.40;99.90
14893;DHT22;7538;53.626;9.906;2022-10-31T11:42:20;16.50;99.90
14893;DHT22;7538;53.626;9.906;2022-10-31T11:44:48;16.60;99.90
14893;DHT22;7538;53.626;9.906;2022-10-31T11:47:17;16.80;99.90
14893;DHT22;7538;53.626;9.906;2022-10-31T11:49:49;16.90;99.90
14893;DHT22;7538;53.626;9.906;2022-10-31T11:52:18;17.00;99.90
14893;DHT22;7538;53.626;9.906;2022-10-31T11:54:48;17.00;99.90
14893;DHT22;7538;53.626;9.906;2022-10-31T11:57:24;17.10;99.90
14893;DHT22;7538;53.626;9.906;2022-10-31T11:59:53;17.00;99.90
14893;DHT22;7538;53.626;9.906;2022-10-31T12:02:20;17.00;99.90
14893;DHT22;7538;53.626;9.906;2022-10-31T12:04:54;17.00;99.90
14893;DHT22;7538;53.626;9.906;2022-10-31T12:07:23;17.00;99.90
14893;DHT22;7538;53.626;9.906;2022-10-31T12:09:50;17.00;99.90
14893;DHT22;7538;53.626;9.906;2022-10-31T12:15:31;17.10;99.90
14893;DHT22;7538;53.626;9.906;2022-10-31T12:21:11;17.20;99.90
14893;DHT22;7538;53.626;9.906;2022-10-31T12:23:52;17.20;99.90
14893;DHT22;7538;53.626;9.906;2022-10-31T12:26:25;17.20;99.90
14893;DHT22;7538;53.626;9.906;2022-10-31T12:29:02;17.20;99.90
14893;DHT22;7538;53.626;9.906;2022-10-31T12:31:48;17.20;99.90
14893;DHT22;7538;53.626;9.906;2022-10-31T12:34:45;17.20;99.90
14893;DHT22;7538;53.626;9.906;2022-10-31T12:37:26;17.20;99.90
14893;DHT22;7538;53.626;9.906;2022-10-31T12:40:05;17.20;99.90
14893;DHT22;7538;53.626;9.906;2022-10-31T12:42:46;17.20;99.90
14893;DHT22;7538;53.626;9.906;2022-10-31T12:45:42;17.30;99.90
14893;DHT22;7538;53.626;9.906;2022-10-31T12:48:20;17.30;99.90
14893;DHT22;7538;53.626;9.906;2022-10-31T12:50:53;17.30;99.90
14893;DHT22;7538;53.626;9.906;2022-10-31T12:53:48;17.30;99.90
14893;DHT22;7538;53.626;9.906;2022-10-31T12:56:30;17.30;99.90
14893;DHT22;7538;53.626;9.906;2022-10-31T12:59:01;17.40;99.90
14893;DHT22;7538;53.626;9.906;2022-10-31T13:01:34;17.30;99.90
14893;DHT22;7538;53.626;9.906;2022-10-31T13:04:03;17.10;99.90
14893;DHT22;7538;53.626;9.906;2022-10-31T13:06:34;17.00;99.90
14893;DHT22;7538;53.626;9.906;2022-10-31T13:09:06;17.00;99.90
14893;DHT22;7538;53.626;9.906;2022-10-31T13:11:37;16.90;99.90
14893;DHT22;7538;53.626;9.906;2022-10-31T13:14:07;16.90;99.90
14893;DHT22;7538;53.626;9.906;2022-10-31T13:16:38;16.90;99.90
14893;DHT22;7538;53.626;9.906;2022-10-31T13:19:12;16.80;99.90
14893;DHT22;7538;53.626;9.906;2022-10-31T13:21:44;16.80;99.90
14893;DHT22;7538;53.626;9.906;2022-10-31T13:24:21;16.70;99.90
14893;DHT22;7538;53.626;9.906;2022-10-31T13:26:51;16.50;99.90
14893;DHT22;7538;53.626;9.906;2022-10-31T13:29:21;16.40;99.90
14893;DHT22;7538;53.626;9.906;2022-10-31T13:31:49;16.30;99.90
14893;DHT22;7538;53.626;9.906;2022-10-31T13:34:22;16.30;99.90
14893;DHT22;7538;53.626;9.906;2022-10-31T13:36:58;16.20;99.90
14893;DHT22;7538;53.626;9.906;2022-10-31T13:39:34;16.10;99.90
14893;DHT22;7538;53.626;9.906;2022-10-31T13:42:11;16.10;99.90
14893;DHT22;7538;53.626;9.906;2022-10-31T13:44:41;16.10;99.90
14893;DHT22;7538;53.626;9.906;2022-10-31T13:47:22;16.20;99.90
14893;DHT22;7538;53.626;9.906;2022-10-31T13:49:49;16.30;99.90
14893;DHT22;7538;53.626;9.906;2022-10-31T13:52:23;16.30;99.90
14893;DHT22;7538;53.626;9.906;2022-10-31T13:54:53;16.40;99.90
14893;DHT22;7538;53.626;9.906;2022-10-31T13:57:31;16.30;99.90
14893;DHT22;7538;53.626;9.906;2022-10-31T14:00:00;16.30;99.90
14893;DHT22;7538;53.626;9.906;2022-10-31T14:02:30;16.20;99.90
14893;DHT22;7538;53.626;9.906;2022-10-31T14:04:59;16.10;99.90
14893;DHT22;7538;53.626;9.906;2022-10-31T14:07:27;16.10;99.90
14893;DHT22;7538;53.626;9.906;2022-10-31T14:09:59;16.00;99.90
14893;DHT22;7538;53.626;9.906;2022-10-31T14:12:31;16.00;99.90
14893;DHT22;7538;53.626;9.906;2022-10-31T14:15:03;16.00;99.90
14893;DHT22;7538;53.626;9.906;2022-10-31T14:17:38;16.10;99.90
14893;DHT22;7538;53.626;9.906;2022-10-31T14:26:17;15.90;99.90
14893;DHT22;7538;53.626;9.906;2022-10-31T14:28:48;15.80;99.90
14893;DHT22;7538;53.626;9.906;2022-10-31T14:31:31;15.70;99.90
14893;DHT22;7538;53.626;9.906;2022-10-31T14:34:01;15.60;99.90
14893;DHT22;7538;53.626;9.906;2022-10-31T14:36:37;15.60;99.90
14893;DHT22;7538;53.626;9.906;2022-10-31T14:39:11;15.60;99.90
14893;DHT22;7538;53.626;9.906;2022-10-31T14:41:53;15.60;99.90
14893;DHT22;7538;53.626;9.906;2022-10-31T14:44:46;15.50;99.90
14893;DHT22;7538;53.626;9.906;2022-10-31T14:47:24;15.60;99.90
14893;DHT22;7538;53.626;9.906;2022-10-31T14:53:06;15.50;99.90
14893;DHT22;7538;53.626;9.906;2022-10-31T14:55:47;15.50;99.90
14893;DHT22;7538;53.626;9.906;2022-10-31T14:58:19;15.40;99.90
14893;DHT22;7538;53.626;9.906;2022-10-31T15:00:48;15.30;99.90
14893;DHT22;7538;53.626;9.906;2022-10-31T15:03:16;15.30;99.90
14893;DHT22;7538;53.626;9.906;2022-10-31T15:05:50;15.30;99.90
14893;DHT22;7538;53.626;9.906;2022-10-31T15:08:34;15.30;99.90
14893;DHT22;7538;53.626;9.906;2022-10-31T15:11:12;15.30;99.90
14893;DHT22;7538;53.626;9.906;2022-10-31T15:13:46;15.30;99.90
14893;DHT22;7538;53.626;9.906;2022-10-31T15:16:15;15.30;99.90
14893;DHT22;7538;53.626;9.906;2022-10-31T15:18:53;15.30;99.90
14893;DHT22;7538;53.626;9.906;2022-10-31T15:21:22;15.30;99.90
14893;DHT22;7538;53.626;9.906;2022-10-31T15:23:52;15.20;99.90
14893;DHT22;7538;53.626;9.906;2022-10-31T15:26:21;15.30;99.90
14893;DHT22;7538;53.626;9.906;2022-10-31T15:28:59;15.20;99.90
14893;DHT22;7538;53.626;9.906;2022-10-31T15:31:28;15.20;99.90
14893;DHT22;7538;53.626;9.906;2022-10-31T15:34:00;15.20;99.90
14893;DHT22;7538;53.626;9.906;2022-10-31T15:36:28;15.20;99.90
14893;DHT22;7538;53.626;9.906;2022-10-31T15:38:56;15.10;99.90
14893;DHT22;7538;53.626;9.906;2022-10-31T15:41:34;15.10;99.90
14893;DHT22;7538;53.626;9.906;2022-10-31T15:44:11;15.00;99.90
14893;DHT22;7538;53.626;9.906;2022-10-31T15:46:39;15.00;99.90
14893;DHT22;7538;53.626;9.906;2022-10-31T15:49:18;15.00;99.90
14893;DHT22;7538;53.626;9.906;2022-10-31T15:51:50;14.90;99.90
14893;DHT22;7538;53.626;9.906;2022-10-31T15:54:17;14.80;99.90
14893;DHT22;7538;53.626;9.906;2022-10-31T15:56:44;14.70;99.90
14893;DHT22;7538;53.626;9.906;2022-10-31T15:59:19;14.70;99.90
14893;DHT22;7538;53.626;9.906;2022-10-31T16:01:59;14.70;99.90
14893;DHT22;7538;53.626;9.906;2022-10-31T16:04:26;14.70;99.90
14893;DHT22;7538;53.626;9.906;2022-10-31T16:06:59;14.60;99.90
14893;DHT22;7538;53.626;9.906;2022-10-31T16:09:26;14.60;99.90
14893;DHT22;7538;53.626;9.906;2022-10-31T16:11:55;14.50;99.90
14893;DHT22;7538;53.626;9.906;2022-10-31T16:14:25;14.50;99.90
14893;DHT22;7538;53.626;9.906;2022-10-31T16:16:56;14.40;99.90
14893;DHT22;7538;53.626;9.906;2022-10-31T16:19:25;14.40;99.90
14893;DHT22;7538;53.626;9.906;2022-10-31T16:22:02;14.30;99.90
14893;DHT22;7538;53.626;9.906;2022-10-31T16:24:31;14.30;99.90
14893;DHT22;7538;53.626;9.906;2022-10-31T16:27:02;14.30;99.90